sensor_id;sensor_type;location;lat;lon;timestamp;temperature;humidity
47168;DHT22;32931;47.778;17.806;2023-04-06T00:02:16;1.80;77.00
47168;DHT22;32931;47.778;17.806;2023-04-06T00:04:43;1.80;76.90
47168;DHT22;32931;47.778;17.806;2023-04-06T00:07:09;1.80;76.70
47168;DHT22;32931;47.778;17.806;2023-04-06T00:09:36;1.90;76.70
47168;DHT22;32931;47.778;17.806;2023-04-06T00:12:02;1.80;76.80
47168;DHT22;32931;47.778;17.806;2023-04-06T00:14:28;1.80;76.80
47168;DHT22;32931;47.778;17.806;2023-04-06T00:16:55;1.80;77.00
47168;DHT22;32931;47.778;17.806;2023-04-06T00:19:21;1.80;76.90
47168;DHT22;32931;47.778;17.806;2023-04-06T00:21:47;1.70;77.20
47168;DHT22;32931;47.778;17.806;2023-04-06T00:24:14;1.70;77.50
47168;DHT22;32931;47.778;17.806;2023-04-06T00:26:40;1.60;77.80
47168;DHT22;32931;47.778;17.806;2023-04-06T00:29:06;1.60;77.90
47168;DHT22;32931;47.778;17.806;2023-04-06T00:31:33;1.60;78.30
47168;DHT22;32931;47.778;17.806;2023-04-06T00:33:59;1.60;78.10
47168;DHT22;32931;47.778;17.806;2023-04-06T00:36:25;1.60;78.30
47168;DHT22;32931;47.778;17.806;2023-04-06T00:38:51;1.50;78.50
47168;DHT22;32931;47.778;17.806;2023-04-06T00:41:18;1.50;78.70
47168;DHT22;32931;47.778;17.806;2023-04-06T00:43:44;1.50;78.90
47168;DHT22;32931;47.778;17.806;2023-04-06T00:46:10;1.40;79.20
47168;DHT22;32931;47.778;17.806;2023-04-06T00:48:36;1.40;79.00
47168;DHT22;32931;47.778;17.806;2023-04-06T00:51:03;1.40;79.10
47168;DHT22;32931;47.778;17.806;2023-04-06T00:53:29;1.40;79.00
47168;DHT22;32931;47.778;17.806;2023-04-06T00:55:55;1.40;79.10
47168;DHT22;32931;47.778;17.806;2023-04-06T00:58:21;1.40;79.30
47168;DHT22;32931;47.778;17.806;2023-04-06T01:00:48;1.40;79.50
47168;DHT22;32931;47.778;17.806;2023-04-06T01:03:14;1.30;79.80
47168;DHT22;32931;47.778;17.806;2023-04-06T01:05:40;1.30;80.20
47168;DHT22;32931;47.778;17.806;2023-04-06T01:08:07;1.30;80.20
47168;DHT22;32931;47.778;17.806;2023-04-06T01:10:33;1.30;80.10
47168;DHT22;32931;47.778;17.806;2023-04-06T01:12:59;1.30;80.00
47168;DHT22;32931;47.778;17.806;2023-04-06T01:15:26;1.20;80.40
47168;DHT22;32931;47.778;17.806;2023-04-06T01:17:52;1.20;80.60
47168;DHT22;32931;47.778;17.806;2023-04-06T01:20:19;1.20;80.50
47168;DHT22;32931;47.778;17.806;2023-04-06T01:22:45;1.20;80.50
47168;DHT22;32931;47.778;17.806;2023-04-06T01:25:11;1.20;80.50
47168;DHT22;32931;47.778;17.806;2023-04-06T01:27:37;1.10;80.50
47168;DHT22;32931;47.778;17.806;2023-04-06T01:30:04;1.20;80.50
47168;DHT22;32931;47.778;17.806;2023-04-06T01:32:30;1.10;80.50
47168;DHT22;32931;47.778;17.806;2023-04-06T01:34:56;1.10;80.50
47168;DHT22;32931;47.778;17.806;2023-04-06T01:37:22;1.10;80.60
47168;DHT22;32931;47.778;17.806;2023-04-06T01:39:49;1.10;81.00
47168;DHT22;32931;47.778;17.806;2023-04-06T01:42:15;1.10;80.80
47168;DHT22;32931;47.778;17.806;2023-04-06T01:44:42;1.10;80.90
47168;DHT22;32931;47.778;17.806;2023-04-06T01:47:08;1.00;80.90
47168;DHT22;32931;47.778;17.806;2023-04-06T01:49:34;1.00;80.90
47168;DHT22;32931;47.778;17.806;2023-04-06T01:52:00;1.00;80.90
47168;DHT22;32931;47.778;17.806;2023-04-06T01:54:26;1.00;81.10
47168;DHT22;32931;47.778;17.806;2023-04-06T01:56:53;1.00;81.30
47168;DHT22;32931;47.778;17.806;2023-04-06T01:59:19;1.00;81.30
47168;DHT22;32931;47.778;17.806;2023-04-06T02:01:45;1.00;81.30
47168;DHT22;32931;47.778;17.806;2023-04-06T02:04:11;1.00;81.50
47168;DHT22;32931;47.778;17.806;2023-04-06T02:06:39;0.90;81.40
47168;DHT22;32931;47.778;17.806;2023-04-06T02:09:05;0.90;81.50
47168;DHT22;32931;47.778;17.806;2023-04-06T02:11:31;0.90;81.70
47168;DHT22;32931;47.778;17.806;2023-04-06T02:13:57;0.90;81.70
47168;DHT22;32931;47.778;17.806;2023-04-06T02:16:26;0.80;81.80
47168;DHT22;32931;47.778;17.806;2023-04-06T02:18:52;0.90;81.80
47168;DHT22;32931;47.778;17.806;2023-04-06T02:21:18;0.80;82.00
47168;DHT22;32931;47.778;17.806;2023-04-06T02:23:46;0.90;82.00
47168;DHT22;32931;47.778;17.806;2023-04-06T02:26:13;0.90;82.10
47168;DHT22;32931;47.778;17.806;2023-04-06T02:28:40;0.80;82.40
47168;DHT22;32931;47.778;17.806;2023-04-06T02:31:08;0.80;82.50
47168;DHT22;32931;47.778;17.806;2023-04-06T02:33:34;0.80;82.50
47168;DHT22;32931;47.778;17.806;2023-04-06T02:36:00;0.80;82.80
47168;DHT22;32931;47.778;17.806;2023-04-06T02:38:26;0.70;83.00
47168;DHT22;32931;47.778;17.806;2023-04-06T02:40:52;0.70;83.30
47168;DHT22;32931;47.778;17.806;2023-04-06T02:43:19;0.70;84.40
47168;DHT22;32931;47.778;17.806;2023-04-06T02:45:45;0.60;83.80
47168;DHT22;32931;47.778;17.806;2023-04-06T02:48:11;0.60;83.80
47168;DHT22;32931;47.778;17.806;2023-04-06T02:50:37;0.60;83.90
47168;DHT22;32931;47.778;17.806;2023-04-06T02:53:03;0.60;83.70
47168;DHT22;32931;47.778;17.806;2023-04-06T02:55:30;0.60;83.90
47168;DHT22;32931;47.778;17.806;2023-04-06T02:57:56;0.60;84.20
47168;DHT22;32931;47.778;17.806;2023-04-06T03:00:22;0.60;84.40
47168;DHT22;32931;47.778;17.806;2023-04-06T03:02:48;0.60;84.50
47168;DHT22;32931;47.778;17.806;2023-04-06T03:05:14;0.60;84.50
47168;DHT22;32931;47.778;17.806;2023-04-06T03:07:41;0.60;84.40
47168;DHT22;32931;47.778;17.806;2023-04-06T03:10:07;0.60;84.60
47168;DHT22;32931;47.778;17.806;2023-04-06T03:12:33;0.60;84.90
47168;DHT22;32931;47.778;17.806;2023-04-06T03:14:59;0.60;85.20
47168;DHT22;32931;47.778;17.806;2023-04-06T03:17:25;0.50;85.40
47168;DHT22;32931;47.778;17.806;2023-04-06T03:19:52;0.50;85.10
47168;DHT22;32931;47.778;17.806;2023-04-06T03:22:19;0.50;85.50
47168;DHT22;32931;47.778;17.806;2023-04-06T03:24:45;0.50;85.70
47168;DHT22;32931;47.778;17.806;2023-04-06T03:27:11;0.50;85.70
47168;DHT22;32931;47.778;17.806;2023-04-06T03:29:37;0.50;85.50
47168;DHT22;32931;47.778;17.806;2023-04-06T03:32:04;0.50;85.70
47168;DHT22;32931;47.778;17.806;2023-04-06T03:34:30;0.50;86.10
47168;DHT22;32931;47.778;17.806;2023-04-06T03:36:56;0.50;85.90
47168;DHT22;32931;47.778;17.806;2023-04-06T03:39:22;0.50;85.90
47168;DHT22;32931;47.778;17.806;2023-04-06T03:41:49;0.50;86.00
47168;DHT22;32931;47.778;17.806;2023-04-06T03:44:15;0.40;86.40
47168;DHT22;32931;47.778;17.806;2023-04-06T03:46:42;0.40;86.40
47168;DHT22;32931;47.778;17.806;2023-04-06T03:49:08;0.40;86.70
47168;DHT22;32931;47.778;17.806;2023-04-06T03:51:34;0.40;86.90
47168;DHT22;32931;47.778;17.806;2023-04-06T03:54:01;0.40;86.70
47168;DHT22;32931;47.778;17.806;2023-04-06T03:56:27;0.40;87.30
47168;DHT22;32931;47.778;17.806;2023-04-06T03:58:53;0.40;87.70
47168;DHT22;32931;47.778;17.806;2023-04-06T04:01:19;0.40;87.80
47168;DHT22;32931;47.778;17.806;2023-04-06T04:03:45;0.40;88.20
47168;DHT22;32931;47.778;17.806;2023-04-06T04:06:12;0.40;88.50
47168;DHT22;32931;47.778;17.806;2023-04-06T04:08:38;0.30;88.50
47168;DHT22;32931;47.778;17.806;2023-04-06T04:11:04;0.40;88.30
47168;DHT22;32931;47.778;17.806;2023-04-06T04:13:30;0.40;88.10
47168;DHT22;32931;47.778;17.806;2023-04-06T04:15:56;0.40;88.70
47168;DHT22;32931;47.778;17.806;2023-04-06T04:18:24;0.30;88.90
47168;DHT22;32931;47.778;17.806;2023-04-06T04:20:50;0.40;89.00
47168;DHT22;32931;47.778;17.806;2023-04-06T04:23:16;0.30;89.40
47168;DHT22;32931;47.778;17.806;2023-04-06T04:25:43;0.30;89.90
47168;DHT22;32931;47.778;17.806;2023-04-06T04:28:09;0.30;90.10
47168;DHT22;32931;47.778;17.806;2023-04-06T04:30:35;0.30;90.20
47168;DHT22;32931;47.778;17.806;2023-04-06T04:33:02;0.30;90.20
47168;DHT22;32931;47.778;17.806;2023-04-06T04:35:28;0.30;90.40
47168;DHT22;32931;47.778;17.806;2023-04-06T04:37:54;0.30;90.30
47168;DHT22;32931;47.778;17.806;2023-04-06T04:40:20;0.40;90.30
47168;DHT22;32931;47.778;17.806;2023-04-06T04:42:46;0.40;90.30
47168;DHT22;32931;47.778;17.806;2023-04-06T04:45:13;0.40;90.40
47168;DHT22;32931;47.778;17.806;2023-04-06T04:47:39;0.40;90.40
47168;DHT22;32931;47.778;17.806;2023-04-06T04:50:05;0.40;90.60
47168;DHT22;32931;47.778;17.806;2023-04-06T04:52:32;0.50;90.80
47168;DHT22;32931;47.778;17.806;2023-04-06T04:54:58;0.50;90.90
47168;DHT22;32931;47.778;17.806;2023-04-06T04:57:24;0.50;91.00
47168;DHT22;32931;47.778;17.806;2023-04-06T04:59:50;0.50;91.20
47168;DHT22;32931;47.778;17.806;2023-04-06T05:02:16;0.60;91.00
47168;DHT22;32931;47.778;17.806;2023-04-06T05:04:43;0.60;91.20
47168;DHT22;32931;47.778;17.806;2023-04-06T05:07:09;0.60;91.30
47168;DHT22;32931;47.778;17.806;2023-04-06T05:09:36;0.60;91.60
47168;DHT22;32931;47.778;17.806;2023-04-06T05:12:02;0.70;91.70
47168;DHT22;32931;47.778;17.806;2023-04-06T05:14:28;0.70;91.90
47168;DHT22;32931;47.778;17.806;2023-04-06T05:16:55;0.70;92.20
47168;DHT22;32931;47.778;17.806;2023-04-06T05:19:21;0.80;92.40
47168;DHT22;32931;47.778;17.806;2023-04-06T05:21:47;0.80;92.50
47168;DHT22;32931;47.778;17.806;2023-04-06T05:24:13;0.80;92.90
47168;DHT22;32931;47.778;17.806;2023-04-06T05:26:39;0.90;93.20
47168;DHT22;32931;47.778;17.806;2023-04-06T05:29:06;1.00;93.30
47168;DHT22;32931;47.778;17.806;2023-04-06T05:31:32;1.00;93.30
47168;DHT22;32931;47.778;17.806;2023-04-06T05:33:58;1.10;93.50
47168;DHT22;32931;47.778;17.806;2023-04-06T05:36:25;1.10;93.90
47168;DHT22;32931;47.778;17.806;2023-04-06T05:38:52;1.10;94.30
47168;DHT22;32931;47.778;17.806;2023-04-06T05:41:18;1.20;94.70
47168;DHT22;32931;47.778;17.806;2023-04-06T05:43:44;1.40;94.20
47168;DHT22;32931;47.778;17.806;2023-04-06T05:46:11;1.40;94.60
47168;DHT22;32931;47.778;17.806;2023-04-06T05:48:37;1.50;94.50
47168;DHT22;32931;47.778;17.806;2023-04-06T05:51:03;1.60;94.30
47168;DHT22;32931;47.778;17.806;2023-04-06T05:53:32;1.70;94.60
47168;DHT22;32931;47.778;17.806;2023-04-06T05:56:02;1.80;95.50
47168;DHT22;32931;47.778;17.806;2023-04-06T05:58:28;1.90;95.10
47168;DHT22;32931;47.778;17.806;2023-04-06T06:00:59;1.90;94.80
47168;DHT22;32931;47.778;17.806;2023-04-06T06:03:26;2.00;95.40
47168;DHT22;32931;47.778;17.806;2023-04-06T06:05:52;2.10;95.00
47168;DHT22;32931;47.778;17.806;2023-04-06T06:08:18;2.20;94.70
47168;DHT22;32931;47.778;17.806;2023-04-06T06:10:44;2.30;94.40
47168;DHT22;32931;47.778;17.806;2023-04-06T06:13:10;2.40;94.20
47168;DHT22;32931;47.778;17.806;2023-04-06T06:15:37;2.50;93.60
47168;DHT22;32931;47.778;17.806;2023-04-06T06:18:03;2.60;93.30
47168;DHT22;32931;47.778;17.806;2023-04-06T06:20:29;2.70;92.90
47168;DHT22;32931;47.778;17.806;2023-04-06T06:22:55;2.90;92.30
47168;DHT22;32931;47.778;17.806;2023-04-06T06:25:21;3.00;92.40
47168;DHT22;32931;47.778;17.806;2023-04-06T06:27:48;3.00;92.40
47168;DHT22;32931;47.778;17.806;2023-04-06T06:30:14;3.10;92.20
47168;DHT22;32931;47.778;17.806;2023-04-06T06:32:40;3.20;91.90
47168;DHT22;32931;47.778;17.806;2023-04-06T06:35:07;3.30;91.40
47168;DHT22;32931;47.778;17.806;2023-04-06T06:37:33;3.40;91.10
47168;DHT22;32931;47.778;17.806;2023-04-06T06:39:59;3.50;90.90
47168;DHT22;32931;47.778;17.806;2023-04-06T06:42:25;3.50;90.80
47168;DHT22;32931;47.778;17.806;2023-04-06T06:44:52;3.60;90.70
47168;DHT22;32931;47.778;17.806;2023-04-06T06:47:18;3.70;90.40
47168;DHT22;32931;47.778;17.806;2023-04-06T06:49:44;3.80;90.20
47168;DHT22;32931;47.778;17.806;2023-04-06T06:52:10;3.90;90.10
47168;DHT22;32931;47.778;17.806;2023-04-06T06:54:36;4.00;90.10
47168;DHT22;32931;47.778;17.806;2023-04-06T06:57:03;4.10;90.00
47168;DHT22;32931;47.778;17.806;2023-04-06T06:59:29;4.10;89.10
47168;DHT22;32931;47.778;17.806;2023-04-06T07:01:55;4.20;88.10
47168;DHT22;32931;47.778;17.806;2023-04-06T07:04:21;4.30;87.60
47168;DHT22;32931;47.778;17.806;2023-04-06T07:06:47;4.40;86.90
47168;DHT22;32931;47.778;17.806;2023-04-06T07:09:13;4.40;87.00
47168;DHT22;32931;47.778;17.806;2023-04-06T07:11:40;4.50;86.90
47168;DHT22;32931;47.778;17.806;2023-04-06T07:14:06;4.60;86.50
47168;DHT22;32931;47.778;17.806;2023-04-06T07:16:32;4.70;86.30
47168;DHT22;32931;47.778;17.806;2023-04-06T07:18:58;4.80;85.50
47168;DHT22;32931;47.778;17.806;2023-04-06T07:21:24;4.80;84.90
47168;DHT22;32931;47.778;17.806;2023-04-06T07:23:51;4.90;84.00
47168;DHT22;32931;47.778;17.806;2023-04-06T07:26:17;5.00;84.20
47168;DHT22;32931;47.778;17.806;2023-04-06T07:28:43;5.10;83.70
47168;DHT22;32931;47.778;17.806;2023-04-06T07:31:09;5.20;83.40
47168;DHT22;32931;47.778;17.806;2023-04-06T07:33:35;5.30;82.70
47168;DHT22;32931;47.778;17.806;2023-04-06T07:36:01;5.30;82.20
47168;DHT22;32931;47.778;17.806;2023-04-06T07:38:28;5.40;81.40
47168;DHT22;32931;47.778;17.806;2023-04-06T07:40:54;5.60;81.20
47168;DHT22;32931;47.778;17.806;2023-04-06T07:43:20;5.60;81.00
47168;DHT22;32931;47.778;17.806;2023-04-06T07:45:46;5.70;80.70
47168;DHT22;32931;47.778;17.806;2023-04-06T07:48:12;5.80;81.40
47168;DHT22;32931;47.778;17.806;2023-04-06T07:50:38;5.90;81.20
47168;DHT22;32931;47.778;17.806;2023-04-06T07:53:05;6.10;80.70
47168;DHT22;32931;47.778;17.806;2023-04-06T07:55:31;6.10;80.30
47168;DHT22;32931;47.778;17.806;2023-04-06T07:57:57;6.20;79.80
47168;DHT22;32931;47.778;17.806;2023-04-06T08:00:23;6.30;78.70
47168;DHT22;32931;47.778;17.806;2023-04-06T08:02:49;6.40;78.40
47168;DHT22;32931;47.778;17.806;2023-04-06T08:05:16;6.50;77.20
47168;DHT22;32931;47.778;17.806;2023-04-06T08:07:43;6.50;76.70
47168;DHT22;32931;47.778;17.806;2023-04-06T08:10:10;6.60;76.20
47168;DHT22;32931;47.778;17.806;2023-04-06T08:12:36;6.70;76.10
47168;DHT22;32931;47.778;17.806;2023-04-06T08:15:02;6.80;75.30
47168;DHT22;32931;47.778;17.806;2023-04-06T08:17:31;6.80;74.80
47168;DHT22;32931;47.778;17.806;2023-04-06T08:19:57;6.90;74.70
47168;DHT22;32931;47.778;17.806;2023-04-06T08:22:23;7.00;73.70
47168;DHT22;32931;47.778;17.806;2023-04-06T08:24:50;7.00;73.00
47168;DHT22;32931;47.778;17.806;2023-04-06T08:27:16;7.10;72.50
47168;DHT22;32931;47.778;17.806;2023-04-06T08:29:42;7.10;72.20
47168;DHT22;32931;47.778;17.806;2023-04-06T08:32:08;7.10;71.60
47168;DHT22;32931;47.778;17.806;2023-04-06T08:34:35;7.20;71.80
47168;DHT22;32931;47.778;17.806;2023-04-06T08:37:01;7.30;72.00
47168;DHT22;32931;47.778;17.806;2023-04-06T08:39:27;7.50;71.10
47168;DHT22;32931;47.778;17.806;2023-04-06T08:41:56;7.60;70.90
47168;DHT22;32931;47.778;17.806;2023-04-06T08:44:23;7.70;71.40
47168;DHT22;32931;47.778;17.806;2023-04-06T08:46:50;7.90;70.80
47168;DHT22;32931;47.778;17.806;2023-04-06T08:49:17;7.90;70.20
47168;DHT22;32931;47.778;17.806;2023-04-06T08:51:43;7.90;69.40
47168;DHT22;32931;47.778;17.806;2023-04-06T08:54:10;7.90;69.50
47168;DHT22;32931;47.778;17.806;2023-04-06T08:56:39;7.90;68.50
47168;DHT22;32931;47.778;17.806;2023-04-06T08:59:06;7.90;68.90
47168;DHT22;32931;47.778;17.806;2023-04-06T09:01:35;8.00;69.20
47168;DHT22;32931;47.778;17.806;2023-04-06T09:04:03;8.10;69.60
47168;DHT22;32931;47.778;17.806;2023-04-06T09:06:34;8.20;69.20
47168;DHT22;32931;47.778;17.806;2023-04-06T09:09:03;8.30;69.00
47168;DHT22;32931;47.778;17.806;2023-04-06T09:11:40;8.30;68.70
47168;DHT22;32931;47.778;17.806;2023-04-06T09:14:06;8.30;67.70
47168;DHT22;32931;47.778;17.806;2023-04-06T09:16:40;8.30;67.60
47168;DHT22;32931;47.778;17.806;2023-04-06T09:19:09;8.30;68.00
47168;DHT22;32931;47.778;17.806;2023-04-06T09:21:36;8.40;68.40
47168;DHT22;32931;47.778;17.806;2023-04-06T09:24:03;8.50;68.40
47168;DHT22;32931;47.778;17.806;2023-04-06T09:26:30;8.60;68.20
47168;DHT22;32931;47.778;17.806;2023-04-06T09:28:57;8.80;67.70
47168;DHT22;32931;47.778;17.806;2023-04-06T09:31:30;8.90;67.80
47168;DHT22;32931;47.778;17.806;2023-04-06T09:33:58;9.00;67.20
47168;DHT22;32931;47.778;17.806;2023-04-06T09:36:32;8.90;65.10
47168;DHT22;32931;47.778;17.806;2023-04-06T09:39:04;9.00;66.40
47168;DHT22;32931;47.778;17.806;2023-04-06T09:41:34;9.10;67.00
47168;DHT22;32931;47.778;17.806;2023-04-06T09:44:06;9.20;67.30
47168;DHT22;32931;47.778;17.806;2023-04-06T09:46:35;9.10;66.60
47168;DHT22;32931;47.778;17.806;2023-04-06T09:49:05;9.00;66.30
47168;DHT22;32931;47.778;17.806;2023-04-06T09:51:37;9.10;65.20
47168;DHT22;32931;47.778;17.806;2023-04-06T09:54:04;9.20;65.60
47168;DHT22;32931;47.778;17.806;2023-04-06T09:56:39;9.20;66.50
47168;DHT22;32931;47.778;17.806;2023-04-06T09:59:13;9.10;64.50
47168;DHT22;32931;47.778;17.806;2023-04-06T10:01:40;9.30;64.10
47168;DHT22;32931;47.778;17.806;2023-04-06T10:04:31;9.40;64.00
47168;DHT22;32931;47.778;17.806;2023-04-06T10:07:03;9.50;61.80
47168;DHT22;32931;47.778;17.806;2023-04-06T10:09:31;9.50;63.20
47168;DHT22;32931;47.778;17.806;2023-04-06T10:12:04;9.60;62.70
47168;DHT22;32931;47.778;17.806;2023-04-06T10:14:33;9.70;61.60
47168;DHT22;32931;47.778;17.806;2023-04-06T10:17:05;9.70;61.80
47168;DHT22;32931;47.778;17.806;2023-04-06T10:19:46;9.80;61.80
47168;DHT22;32931;47.778;17.806;2023-04-06T10:22:22;9.90;62.10
47168;DHT22;32931;47.778;17.806;2023-04-06T10:24:50;10.00;61.00
47168;DHT22;32931;47.778;17.806;2023-04-06T10:27:16;10.10;61.70
47168;DHT22;32931;47.778;17.806;2023-04-06T10:29:52;10.10;61.10
47168;DHT22;32931;47.778;17.806;2023-04-06T10:32:18;10.20;60.70
47168;DHT22;32931;47.778;17.806;2023-04-06T10:34:45;10.30;61.10
47168;DHT22;32931;47.778;17.806;2023-04-06T10:37:16;10.30;61.00
47168;DHT22;32931;47.778;17.806;2023-04-06T10:39:53;10.40;61.90
47168;DHT22;32931;47.778;17.806;2023-04-06T10:42:24;10.50;60.70
47168;DHT22;32931;47.778;17.806;2023-04-06T10:44:51;10.60;61.90
47168;DHT22;32931;47.778;17.806;2023-04-06T10:47:18;10.40;60.70
47168;DHT22;32931;47.778;17.806;2023-04-06T10:49:44;10.30;60.60
47168;DHT22;32931;47.778;17.806;2023-04-06T10:52:10;10.40;60.80
47168;DHT22;32931;47.778;17.806;2023-04-06T10:54:42;10.40;60.40
47168;DHT22;32931;47.778;17.806;2023-04-06T10:57:09;10.40;59.60
47168;DHT22;32931;47.778;17.806;2023-04-06T10:59:36;10.50;60.40
47168;DHT22;32931;47.778;17.806;2023-04-06T11:02:02;10.50;59.40
47168;DHT22;32931;47.778;17.806;2023-04-06T11:04:28;10.40;59.10
47168;DHT22;32931;47.778;17.806;2023-04-06T11:06:54;10.20;59.10
47168;DHT22;32931;47.778;17.806;2023-04-06T11:09:28;10.00;58.80
47168;DHT22;32931;47.778;17.806;2023-04-06T11:11:55;10.00;58.40
47168;DHT22;32931;47.778;17.806;2023-04-06T11:14:22;10.00;58.80
47168;DHT22;32931;47.778;17.806;2023-04-06T11:16:48;10.00;58.90
47168;DHT22;32931;47.778;17.806;2023-04-06T11:19:17;10.10;59.00
47168;DHT22;32931;47.778;17.806;2023-04-06T11:21:46;10.20;59.10
47168;DHT22;32931;47.778;17.806;2023-04-06T11:24:24;10.10;57.10
47168;DHT22;32931;47.778;17.806;2023-04-06T11:29:22;10.40;57.90
47168;DHT22;32931;47.778;17.806;2023-04-06T11:31:53;10.60;57.90
47168;DHT22;32931;47.778;17.806;2023-04-06T11:34:21;10.70;57.80
47168;DHT22;32931;47.778;17.806;2023-04-06T11:36:49;10.80;57.60
47168;DHT22;32931;47.778;17.806;2023-04-06T11:39:21;10.70;58.20
47168;DHT22;32931;47.778;17.806;2023-04-06T11:41:59;10.80;58.60
47168;DHT22;32931;47.778;17.806;2023-04-06T11:47:02;11.10;57.80
47168;DHT22;32931;47.778;17.806;2023-04-06T11:49:29;11.00;58.00
47168;DHT22;32931;47.778;17.806;2023-04-06T11:51:57;11.00;58.50
47168;DHT22;32931;47.778;17.806;2023-04-06T11:54:36;11.00;58.00
47168;DHT22;32931;47.778;17.806;2023-04-06T11:57:04;11.10;57.60
47168;DHT22;32931;47.778;17.806;2023-04-06T11:59:34;11.10;58.00
47168;DHT22;32931;47.778;17.806;2023-04-06T12:02:04;11.10;57.20
47168;DHT22;32931;47.778;17.806;2023-04-06T12:04:30;11.10;57.70
47168;DHT22;32931;47.778;17.806;2023-04-06T12:06:57;11.00;57.90
47168;DHT22;32931;47.778;17.806;2023-04-06T12:09:23;11.10;58.30
47168;DHT22;32931;47.778;17.806;2023-04-06T12:11:49;11.20;58.70
47168;DHT22;32931;47.778;17.806;2023-04-06T12:14:15;11.40;59.40
47168;DHT22;32931;47.778;17.806;2023-04-06T12:16:42;11.50;59.20
47168;DHT22;32931;47.778;17.806;2023-04-06T12:19:08;11.70;59.30
47168;DHT22;32931;47.778;17.806;2023-04-06T12:21:35;11.70;59.10
47168;DHT22;32931;47.778;17.806;2023-04-06T12:24:04;11.70;59.20
47168;DHT22;32931;47.778;17.806;2023-04-06T12:26:31;11.90;58.50
47168;DHT22;32931;47.778;17.806;2023-04-06T12:28:58;11.90;58.40
47168;DHT22;32931;47.778;17.806;2023-04-06T12:31:30;11.90;58.60
47168;DHT22;32931;47.778;17.806;2023-04-06T12:33:56;11.90;58.80
47168;DHT22;32931;47.778;17.806;2023-04-06T12:36:23;11.90;58.40
47168;DHT22;32931;47.778;17.806;2023-04-06T12:38:49;12.00;58.40
47168;DHT22;32931;47.778;17.806;2023-04-06T12:41:17;12.00;57.50
47168;DHT22;32931;47.778;17.806;2023-04-06T12:43:44;12.00;57.90
47168;DHT22;32931;47.778;17.806;2023-04-06T12:46:10;12.10;57.80
47168;DHT22;32931;47.778;17.806;2023-04-06T12:48:37;12.20;57.60
47168;DHT22;32931;47.778;17.806;2023-04-06T12:51:06;12.30;57.50
47168;DHT22;32931;47.778;17.806;2023-04-06T12:53:34;12.40;57.90
47168;DHT22;32931;47.778;17.806;2023-04-06T12:56:01;12.60;57.90
47168;DHT22;32931;47.778;17.806;2023-04-06T12:58:27;12.60;57.10
47168;DHT22;32931;47.778;17.806;2023-04-06T13:00:54;12.60;57.10
47168;DHT22;32931;47.778;17.806;2023-04-06T13:03:21;12.70;57.20
47168;DHT22;32931;47.778;17.806;2023-04-06T13:05:49;12.70;57.20
47168;DHT22;32931;47.778;17.806;2023-04-06T13:08:18;12.70;57.20
47168;DHT22;32931;47.778;17.806;2023-04-06T13:10:48;12.90;56.50
47168;DHT22;32931;47.778;17.806;2023-04-06T13:13:15;12.90;56.10
47168;DHT22;32931;47.778;17.806;2023-04-06T13:15:41;12.90;55.90
47168;DHT22;32931;47.778;17.806;2023-04-06T13:18:08;12.80;55.70
47168;DHT22;32931;47.778;17.806;2023-04-06T13:20:35;12.80;55.70
47168;DHT22;32931;47.778;17.806;2023-04-06T13:23:01;12.80;55.90
47168;DHT22;32931;47.778;17.806;2023-04-06T13:25:27;12.70;55.20
47168;DHT22;32931;47.778;17.806;2023-04-06T13:27:58;12.70;55.80
47168;DHT22;32931;47.778;17.806;2023-04-06T13:30:25;12.30;54.80
47168;DHT22;32931;47.778;17.806;2023-04-06T13:32:51;12.10;55.40
47168;DHT22;32931;47.778;17.806;2023-04-06T13:35:17;12.10;55.50
47168;DHT22;32931;47.778;17.806;2023-04-06T13:37:44;12.20;55.90
47168;DHT22;32931;47.778;17.806;2023-04-06T13:40:10;12.20;55.60
47168;DHT22;32931;47.778;17.806;2023-04-06T13:42:37;12.40;55.80
47168;DHT22;32931;47.778;17.806;2023-04-06T13:45:06;12.50;56.20
47168;DHT22;32931;47.778;17.806;2023-04-06T13:47:32;12.60;55.90
47168;DHT22;32931;47.778;17.806;2023-04-06T13:49:59;12.80;55.90
47168;DHT22;32931;47.778;17.806;2023-04-06T13:52:25;12.70;55.20
47168;DHT22;32931;47.778;17.806;2023-04-06T13:54:52;12.70;55.30
47168;DHT22;32931;47.778;17.806;2023-04-06T13:57:18;12.70;55.60
47168;DHT22;32931;47.778;17.806;2023-04-06T13:59:44;12.60;55.20
47168;DHT22;32931;47.778;17.806;2023-04-06T14:02:11;12.50;55.30
47168;DHT22;32931;47.778;17.806;2023-04-06T14:04:37;12.50;55.80
47168;DHT22;32931;47.778;17.806;2023-04-06T14:07:04;12.40;55.60
47168;DHT22;32931;47.778;17.806;2023-04-06T14:09:33;12.40;55.40
47168;DHT22;32931;47.778;17.806;2023-04-06T14:11:59;12.30;55.90
47168;DHT22;32931;47.778;17.806;2023-04-06T14:14:26;12.40;55.70
47168;DHT22;32931;47.778;17.806;2023-04-06T14:16:52;12.40;56.10
47168;DHT22;32931;47.778;17.806;2023-04-06T14:19:18;12.30;56.00
47168;DHT22;32931;47.778;17.806;2023-04-06T14:21:45;12.30;55.80
47168;DHT22;32931;47.778;17.806;2023-04-06T14:24:11;12.30;55.60
47168;DHT22;32931;47.778;17.806;2023-04-06T14:26:38;12.30;55.30
47168;DHT22;32931;47.778;17.806;2023-04-06T14:29:05;12.30;55.70
47168;DHT22;32931;47.778;17.806;2023-04-06T14:31:32;12.20;56.00
47168;DHT22;32931;47.778;17.806;2023-04-06T14:34:01;12.20;55.70
47168;DHT22;32931;47.778;17.806;2023-04-06T14:36:27;12.00;55.50
47168;DHT22;32931;47.778;17.806;2023-04-06T14:38:57;12.00;55.80
47168;DHT22;32931;47.778;17.806;2023-04-06T14:41:24;12.00;55.90
47168;DHT22;32931;47.778;17.806;2023-04-06T14:43:53;11.90;56.10
47168;DHT22;32931;47.778;17.806;2023-04-06T14:46:19;11.80;55.90
47168;DHT22;32931;47.778;17.806;2023-04-06T14:48:47;11.80;56.40
47168;DHT22;32931;47.778;17.806;2023-04-06T14:51:13;11.70;56.40
47168;DHT22;32931;47.778;17.806;2023-04-06T14:53:39;11.70;56.50
47168;DHT22;32931;47.778;17.806;2023-04-06T14:56:06;11.70;57.10
47168;DHT22;32931;47.778;17.806;2023-04-06T14:58:32;11.60;56.70
47168;DHT22;32931;47.778;17.806;2023-04-06T15:01:00;11.70;56.90
47168;DHT22;32931;47.778;17.806;2023-04-06T15:03:27;11.70;56.80
47168;DHT22;32931;47.778;17.806;2023-04-06T15:05:57;11.60;56.40
47168;DHT22;32931;47.778;17.806;2023-04-06T15:08:23;11.60;56.70
47168;DHT22;32931;47.778;17.806;2023-04-06T15:10:50;11.60;56.60
47168;DHT22;32931;47.778;17.806;2023-04-06T15:13:17;11.60;56.30
47168;DHT22;32931;47.778;17.806;2023-04-06T15:15:43;11.70;56.60
47168;DHT22;32931;47.778;17.806;2023-04-06T15:18:11;11.70;56.20
47168;DHT22;32931;47.778;17.806;2023-04-06T15:20:37;11.70;56.00
47168;DHT22;32931;47.778;17.806;2023-04-06T15:23:03;11.70;56.10
47168;DHT22;32931;47.778;17.806;2023-04-06T15:25:30;11.70;55.90
47168;DHT22;32931;47.778;17.806;2023-04-06T15:27:56;11.60;55.90
47168;DHT22;32931;47.778;17.806;2023-04-06T15:30:23;11.50;56.00